createdAt,value
2022-12-04T00:04:26.254Z,2.63
2022-12-04T00:10:49.169Z,2.64
2022-12-04T00:17:09.186Z,2.67
2022-12-04T00:23:32.164Z,2.66
2022-12-04T00:29:52.530Z,2.64
2022-12-04T00:36:15.250Z,2.62
2022-12-04T00:42:35.227Z,2.63
2022-12-04T00:48:58.237Z,2.6
2022-12-04T00:55:18.214Z,2.58
2022-12-04T01:01:41.307Z,2.55
2022-12-04T01:08:01.323Z,2.52
2022-12-04T01:14:24.281Z,2.49
2022-12-04T01:20:44.223Z,2.46
2022-12-04T01:27:07.201Z,2.48
2022-12-04T01:33:27.320Z,2.45
2022-12-04T01:39:50.175Z,2.43
2022-12-04T01:46:10.215Z,2.41
2022-12-04T01:52:33.222Z,2.39
2022-12-04T01:58:53.188Z,2.43
2022-12-04T02:05:16.166Z,2.45
2022-12-04T02:11:36.315Z,2.38
2022-12-04T02:17:59.175Z,2.34
2022-12-04T02:24:19.286Z,2.32
2022-12-04T02:30:42.255Z,2.32
2022-12-04T02:37:02.161Z,2.32
2022-12-04T02:43:25.250Z,2.3
2022-12-04T02:49:45.238Z,2.29
2022-12-04T02:56:08.170Z,2.27
2022-12-04T03:02:28.302Z,2.22
2022-12-04T03:08:51.177Z,2.21
2022-12-04T03:15:11.200Z,2.16
2022-12-04T03:21:34.131Z,2.15
2022-12-04T03:27:54.342Z,2.15
2022-12-04T03:34:17.143Z,2.18
2022-12-04T03:40:37.241Z,2.19
2022-12-04T03:47:00.210Z,2.16
2022-12-04T03:53:20.304Z,2.09
2022-12-04T03:59:43.175Z,2.07
2022-12-04T04:06:03.214Z,2.04
2022-12-04T04:12:26.200Z,2.01
2022-12-04T04:34:55.681Z,1.93
2022-12-04T04:41:15.160Z,1.92
2022-12-04T04:47:38.281Z,1.93
2022-12-04T04:53:58.193Z,1.96
2022-12-04T05:00:21.163Z,1.97
2022-12-04T05:06:41.272Z,1.9
2022-12-04T05:13:04.255Z,1.82
2022-12-04T05:19:24.234Z,1.77
2022-12-04T05:25:47.180Z,1.7
2022-12-04T05:32:07.231Z,1.71
2022-12-04T05:38:30.163Z,1.73
2022-12-04T05:44:50.213Z,1.67
2022-12-04T05:51:13.190Z,1.68
2022-12-04T05:57:33.232Z,1.64
2022-12-04T06:03:56.221Z,1.56
2022-12-04T06:10:16.175Z,1.51
2022-12-04T06:16:39.216Z,1.5
2022-12-04T06:22:59.210Z,1.5
2022-12-04T06:29:22.210Z,1.5
2022-12-04T06:35:42.172Z,1.48
2022-12-04T06:42:05.276Z,1.46
2022-12-04T06:48:25.208Z,1.43
2022-12-04T06:54:48.176Z,1.46
2022-12-04T07:01:08.158Z,1.42
2022-12-04T07:07:31.314Z,1.39
2022-12-04T07:13:51.156Z,1.33
2022-12-04T07:20:14.279Z,1.34
2022-12-04T07:26:34.195Z,1.39
2022-12-04T07:32:57.175Z,1.42
2022-12-04T07:39:17.295Z,1.42
2022-12-04T07:45:40.245Z,1.46
2022-12-04T07:52:00.135Z,1.47
2022-12-04T07:58:23.170Z,1.48
2022-12-04T08:04:43.250Z,1.54
2022-12-04T08:11:06.284Z,1.63
2022-12-04T08:17:26.216Z,1.65
2022-12-04T08:23:49.173Z,1.66
2022-12-04T08:30:09.252Z,1.69
2022-12-04T08:36:32.167Z,1.72
2022-12-04T08:42:52.197Z,1.73
2022-12-04T08:49:15.265Z,1.74
2022-12-04T08:55:35.199Z,1.79
2022-12-04T09:01:58.200Z,1.82
2022-12-04T09:08:18.301Z,1.82
2022-12-04T09:14:41.170Z,1.88
2022-12-04T09:21:01.235Z,1.88
2022-12-04T09:37:29.109Z,1.93
2022-12-04T09:43:49.149Z,1.98
2022-12-04T09:50:12.166Z,2.05
2022-12-04T09:56:32.193Z,2.19
2022-12-04T10:02:55.329Z,2.3
2022-12-04T10:09:15.193Z,2.37
2022-12-04T10:15:38.251Z,2.41
2022-12-04T10:21:58.187Z,2.47
2022-12-04T10:28:21.168Z,2.56
2022-12-04T10:34:45.549Z,2.62
2022-12-04T10:41:05.856Z,2.6
2022-12-04T10:47:24.152Z,2.63
2022-12-04T10:53:47.177Z,2.63
2022-12-04T11:00:07.241Z,2.68
2022-12-04T11:06:30.271Z,2.72
2022-12-04T11:12:50.190Z,2.77
2022-12-04T11:19:13.291Z,2.79
2022-12-04T11:25:34.222Z,2.79
2022-12-04T11:31:59.395Z,2.78
2022-12-04T11:38:17.189Z,2.77
2022-12-04T11:44:40.391Z,2.79
2022-12-04T11:51:00.265Z,2.85
2022-12-04T11:57:23.171Z,2.86
2022-12-04T12:03:47.674Z,2.87
2022-12-04T12:10:12.179Z,2.92
2022-12-04T12:16:32.235Z,3
2022-12-04T12:22:55.247Z,3.14
2022-12-04T12:29:15.325Z,3.25
2022-12-04T12:35:38.289Z,3.31
2022-12-04T12:41:58.238Z,3.31
2022-12-04T12:48:21.209Z,3.33
2022-12-04T12:54:41.305Z,3.29
2022-12-04T13:01:04.217Z,3.24
2022-12-04T13:07:24.370Z,3.23
2022-12-04T13:13:47.168Z,3.2
2022-12-04T13:20:10.027Z,3.23
2022-12-04T13:26:30.249Z,3.21
2022-12-04T13:32:50.148Z,3.14
2022-12-04T13:39:13.219Z,3.13
2022-12-04T13:45:33.370Z,3.16
2022-12-04T13:51:56.186Z,3.14
2022-12-04T13:58:16.313Z,3.13
2022-12-04T14:04:39.272Z,3.15
2022-12-04T14:10:59.233Z,3.17
2022-12-04T14:17:22.162Z,3.18
2022-12-04T14:23:42.169Z,3.16
2022-12-04T14:30:05.287Z,3.14
2022-12-04T14:47:51.393Z,3.16
2022-12-04T14:54:14.154Z,3.21
2022-12-04T15:00:34.222Z,3.2
2022-12-04T15:07:00.312Z,3.16
2022-12-04T15:13:21.348Z,3.17
2022-12-04T15:19:40.249Z,3.18
2022-12-04T15:26:00.215Z,3.18
2022-12-04T15:32:23.148Z,3.2
2022-12-04T15:38:43.147Z,3.25
2022-12-04T15:45:06.242Z,3.29
2022-12-04T15:51:26.380Z,3.32
2022-12-04T15:57:49.231Z,3.35
2022-12-04T16:04:09.185Z,3.39
2022-12-04T16:10:32.301Z,3.44
2022-12-04T16:16:52.153Z,3.46
2022-12-04T16:23:15.230Z,3.4
2022-12-04T16:29:35.201Z,3.38
2022-12-04T16:35:58.180Z,3.39
2022-12-04T16:42:18.293Z,3.41
2022-12-04T16:48:41.266Z,3.43
2022-12-04T16:55:04.858Z,3.47
2022-12-04T17:01:24.352Z,3.44
2022-12-04T17:07:44.313Z,3.35
2022-12-04T17:14:07.308Z,3.33
2022-12-04T17:20:27.206Z,3.35
2022-12-04T17:26:50.234Z,3.3
2022-12-04T17:33:10.146Z,3.24
2022-12-04T17:39:33.192Z,3.22
2022-12-04T17:45:53.225Z,3.22
2022-12-04T17:52:16.218Z,3.19
2022-12-04T17:58:36.216Z,3.19
2022-12-04T18:04:59.240Z,3.22
2022-12-04T18:11:19.553Z,3.32
2022-12-04T18:17:43.316Z,3.37
2022-12-04T18:24:03.224Z,3.41
2022-12-04T18:30:26.238Z,3.42
2022-12-04T18:36:46.266Z,3.4
2022-12-04T18:43:09.205Z,3.43
2022-12-04T18:49:29.158Z,3.49
2022-12-04T18:55:52.346Z,3.51
2022-12-04T19:02:12.274Z,3.42
2022-12-04T19:08:38.737Z,3.3
2022-12-04T19:14:55.289Z,3.28
2022-12-04T19:21:18.195Z,3.36
2022-12-04T19:27:38.135Z,3.43
2022-12-04T19:50:44.169Z,3.36
2022-12-04T19:57:07.166Z,3.33
2022-12-04T20:03:27.320Z,3.36
2022-12-04T20:09:52.269Z,3.32
2022-12-04T20:16:10.139Z,3.27
2022-12-04T20:22:33.209Z,3.21
2022-12-04T20:28:53.250Z,3.17
2022-12-04T20:35:16.171Z,3.1
2022-12-04T20:41:36.210Z,3.07
2022-12-04T20:47:59.227Z,3.05
2022-12-04T20:54:19.192Z,2.97
2022-12-04T21:00:42.157Z,2.94
2022-12-04T21:07:02.186Z,2.98
2022-12-04T21:13:25.257Z,3.06
2022-12-04T21:19:45.154Z,3.16
2022-12-04T21:26:08.249Z,3.21
2022-12-04T21:32:28.155Z,3.22
2022-12-04T21:38:51.169Z,3.23
2022-12-04T21:45:11.160Z,3.17
2022-12-04T21:51:56.083Z,3.18
2022-12-04T21:57:54.171Z,3.18
2022-12-04T22:04:17.161Z,3.22
2022-12-04T22:10:37.260Z,3.22
2022-12-04T22:17:00.281Z,3.22
2022-12-04T22:23:20.298Z,3.18
2022-12-04T22:29:51.180Z,3.19
2022-12-04T22:36:03.189Z,3.2
2022-12-04T22:42:26.226Z,3.25
2022-12-04T22:48:46.204Z,3.31
2022-12-04T22:55:09.213Z,3.31
2022-12-04T23:20:40.194Z,3.05
2022-12-04T23:27:00.181Z,3.09
2022-12-04T23:33:23.222Z,3.09
2022-12-04T23:39:43.225Z,3.06
2022-12-04T23:46:10.849Z,3.06
2022-12-04T23:52:26.250Z,3.11
2022-12-04T23:58:49.222Z,3.13
